sensor_id;sensor_type;location;lat;lon;timestamp;temperature;humidity
983;DHT22;480;48.124;11.578;2023-08-24T00:00:48;26.90;99.90
983;DHT22;480;48.124;11.578;2023-08-24T00:03:15;26.90;99.90
983;DHT22;480;48.124;11.578;2023-08-24T00:05:43;27.00;99.90
983;DHT22;480;48.124;11.578;2023-08-24T00:08:10;27.00;99.90
983;DHT22;480;48.124;11.578;2023-08-24T00:10:37;26.90;99.90
983;DHT22;480;48.124;11.578;2023-08-24T00:13:04;26.80;99.90
983;DHT22;480;48.124;11.578;2023-08-24T00:15:35;26.70;99.90
983;DHT22;480;48.124;11.578;2023-08-24T00:18:03;26.80;99.90
983;DHT22;480;48.124;11.578;2023-08-24T00:20:30;26.90;99.90
983;DHT22;480;48.124;11.578;2023-08-24T00:22:58;26.90;99.90
983;DHT22;480;48.124;11.578;2023-08-24T00:25:26;26.90;99.90
983;DHT22;480;48.124;11.578;2023-08-24T00:27:54;26.90;99.90
983;DHT22;480;48.124;11.578;2023-08-24T00:30:23;26.90;99.90
983;DHT22;480;48.124;11.578;2023-08-24T00:32:51;26.80;99.90
983;DHT22;480;48.124;11.578;2023-08-24T00:35:19;26.80;99.90
983;DHT22;480;48.124;11.578;2023-08-24T00:37:46;26.80;99.90
983;DHT22;480;48.124;11.578;2023-08-24T00:40:13;26.80;99.90
983;DHT22;480;48.124;11.578;2023-08-24T00:42:41;26.50;99.90
983;DHT22;480;48.124;11.578;2023-08-24T00:45:10;26.30;99.90
983;DHT22;480;48.124;11.578;2023-08-24T00:47:37;26.40;99.90
983;DHT22;480;48.124;11.578;2023-08-24T00:50:09;26.40;99.90
983;DHT22;480;48.124;11.578;2023-08-24T00:52:37;26.50;99.90
983;DHT22;480;48.124;11.578;2023-08-24T00:55:05;26.40;99.90
983;DHT22;480;48.124;11.578;2023-08-24T00:57:33;26.50;99.90
983;DHT22;480;48.124;11.578;2023-08-24T01:00:03;26.30;99.90
983;DHT22;480;48.124;11.578;2023-08-24T01:02:34;26.10;99.90
983;DHT22;480;48.124;11.578;2023-08-24T01:05:01;25.60;99.90
983;DHT22;480;48.124;11.578;2023-08-24T01:07:31;25.20;99.90
983;DHT22;480;48.124;11.578;2023-08-24T01:09:59;25.00;99.90
983;DHT22;480;48.124;11.578;2023-08-24T01:12:35;24.80;99.90
983;DHT22;480;48.124;11.578;2023-08-24T01:15:11;24.70;99.90
983;DHT22;480;48.124;11.578;2023-08-24T01:17:43;25.00;99.90
983;DHT22;480;48.124;11.578;2023-08-24T01:20:11;25.00;99.90
983;DHT22;480;48.124;11.578;2023-08-24T01:22:46;24.90;99.90
983;DHT22;480;48.124;11.578;2023-08-24T01:25:17;24.80;99.90
983;DHT22;480;48.124;11.578;2023-08-24T01:27:50;24.90;99.90
983;DHT22;480;48.124;11.578;2023-08-24T01:30:18;24.90;99.90
983;DHT22;480;48.124;11.578;2023-08-24T01:32:46;24.80;99.90
983;DHT22;480;48.124;11.578;2023-08-24T01:35:13;24.90;99.90
983;DHT22;480;48.124;11.578;2023-08-24T01:37:40;24.80;99.90
983;DHT22;480;48.124;11.578;2023-08-24T01:40:13;24.60;99.90
983;DHT22;480;48.124;11.578;2023-08-24T01:42:44;24.50;99.90
983;DHT22;480;48.124;11.578;2023-08-24T01:45:16;24.60;99.90
983;DHT22;480;48.124;11.578;2023-08-24T01:47:45;24.60;99.90
983;DHT22;480;48.124;11.578;2023-08-24T01:50:14;24.60;99.90
983;DHT22;480;48.124;11.578;2023-08-24T01:52:42;24.80;99.90
983;DHT22;480;48.124;11.578;2023-08-24T01:55:10;25.00;99.90
983;DHT22;480;48.124;11.578;2023-08-24T01:57:37;25.10;99.90
983;DHT22;480;48.124;11.578;2023-08-24T02:00:06;25.30;99.90
983;DHT22;480;48.124;11.578;2023-08-24T02:02:36;25.40;99.90
983;DHT22;480;48.124;11.578;2023-08-24T02:05:04;25.40;99.90
983;DHT22;480;48.124;11.578;2023-08-24T02:07:32;25.50;99.90
983;DHT22;480;48.124;11.578;2023-08-24T02:09:59;25.10;99.90
983;DHT22;480;48.124;11.578;2023-08-24T02:12:26;25.00;99.90
983;DHT22;480;48.124;11.578;2023-08-24T02:14:54;24.80;99.90
983;DHT22;480;48.124;11.578;2023-08-24T02:17:21;24.90;99.90
983;DHT22;480;48.124;11.578;2023-08-24T02:19:53;25.00;99.90
983;DHT22;480;48.124;11.578;2023-08-24T02:22:20;24.90;99.90
983;DHT22;480;48.124;11.578;2023-08-24T02:24:47;24.70;99.90
983;DHT22;480;48.124;11.578;2023-08-24T02:27:14;24.50;99.90
983;DHT22;480;48.124;11.578;2023-08-24T02:29:41;24.30;99.90
983;DHT22;480;48.124;11.578;2023-08-24T02:32:08;24.30;99.90
983;DHT22;480;48.124;11.578;2023-08-24T02:34:35;24.30;99.90
983;DHT22;480;48.124;11.578;2023-08-24T02:37:04;24.40;99.90
983;DHT22;480;48.124;11.578;2023-08-24T02:39:32;24.30;99.90
983;DHT22;480;48.124;11.578;2023-08-24T02:42:00;24.20;99.90
983;DHT22;480;48.124;11.578;2023-08-24T02:44:28;24.20;99.90
983;DHT22;480;48.124;11.578;2023-08-24T02:46:55;24.20;99.90
983;DHT22;480;48.124;11.578;2023-08-24T02:49:22;24.20;99.90
983;DHT22;480;48.124;11.578;2023-08-24T02:51:49;24.20;99.90
983;DHT22;480;48.124;11.578;2023-08-24T02:54:18;24.30;99.90
983;DHT22;480;48.124;11.578;2023-08-24T02:56:45;24.40;99.90
983;DHT22;480;48.124;11.578;2023-08-24T02:59:12;24.60;99.90
983;DHT22;480;48.124;11.578;2023-08-24T03:01:39;24.70;99.90
983;DHT22;480;48.124;11.578;2023-08-24T03:04:07;24.80;99.90
983;DHT22;480;48.124;11.578;2023-08-24T03:06:34;24.80;99.90
983;DHT22;480;48.124;11.578;2023-08-24T03:09:01;24.90;99.90
983;DHT22;480;48.124;11.578;2023-08-24T03:11:31;24.80;99.90
983;DHT22;480;48.124;11.578;2023-08-24T03:13:58;24.40;99.90
983;DHT22;480;48.124;11.578;2023-08-24T03:16:26;24.20;99.90
983;DHT22;480;48.124;11.578;2023-08-24T03:18:56;23.80;99.90
983;DHT22;480;48.124;11.578;2023-08-24T03:21:27;23.60;99.90
983;DHT22;480;48.124;11.578;2023-08-24T03:23:54;23.40;99.90
983;DHT22;480;48.124;11.578;2023-08-24T03:26:21;23.10;99.90
983;DHT22;480;48.124;11.578;2023-08-24T03:28:50;23.00;99.90
983;DHT22;480;48.124;11.578;2023-08-24T03:31:17;22.90;99.90
983;DHT22;480;48.124;11.578;2023-08-24T03:33:45;22.80;99.90
983;DHT22;480;48.124;11.578;2023-08-24T03:36:13;22.70;99.90
983;DHT22;480;48.124;11.578;2023-08-24T03:38:40;22.60;99.90
983;DHT22;480;48.124;11.578;2023-08-24T03:41:07;22.50;99.90
983;DHT22;480;48.124;11.578;2023-08-24T03:43:35;22.40;99.90
983;DHT22;480;48.124;11.578;2023-08-24T03:46:04;22.30;99.90
983;DHT22;480;48.124;11.578;2023-08-24T03:48:32;22.30;99.90
983;DHT22;480;48.124;11.578;2023-08-24T03:50:59;22.30;99.90
983;DHT22;480;48.124;11.578;2023-08-24T03:53:27;22.30;99.90
983;DHT22;480;48.124;11.578;2023-08-24T03:55:54;22.30;99.90
983;DHT22;480;48.124;11.578;2023-08-24T03:58:21;22.30;99.90
983;DHT22;480;48.124;11.578;2023-08-24T04:00:48;22.30;99.90
983;DHT22;480;48.124;11.578;2023-08-24T04:03:17;22.20;99.90
983;DHT22;480;48.124;11.578;2023-08-24T04:05:44;22.20;99.90
983;DHT22;480;48.124;11.578;2023-08-24T04:08:11;22.20;99.90
983;DHT22;480;48.124;11.578;2023-08-24T04:10:38;22.30;99.90
983;DHT22;480;48.124;11.578;2023-08-24T04:13:05;22.20;99.90
983;DHT22;480;48.124;11.578;2023-08-24T04:15:32;22.20;99.90
983;DHT22;480;48.124;11.578;2023-08-24T04:17:59;22.20;99.90
983;DHT22;480;48.124;11.578;2023-08-24T04:20:28;22.10;99.90
983;DHT22;480;48.124;11.578;2023-08-24T04:22:55;22.10;99.90
983;DHT22;480;48.124;11.578;2023-08-24T04:25:24;22.10;99.90
983;DHT22;480;48.124;11.578;2023-08-24T04:27:51;22.10;99.90
983;DHT22;480;48.124;11.578;2023-08-24T04:30:18;22.00;99.90
983;DHT22;480;48.124;11.578;2023-08-24T04:32:45;22.10;99.90
983;DHT22;480;48.124;11.578;2023-08-24T04:35:12;22.00;99.90
983;DHT22;480;48.124;11.578;2023-08-24T04:37:41;22.10;99.90
983;DHT22;480;48.124;11.578;2023-08-24T04:40:08;22.10;99.90
983;DHT22;480;48.124;11.578;2023-08-24T04:42:36;22.10;99.90
983;DHT22;480;48.124;11.578;2023-08-24T04:45:04;22.20;99.90
983;DHT22;480;48.124;11.578;2023-08-24T04:47:31;22.20;99.90
983;DHT22;480;48.124;11.578;2023-08-24T04:49:58;22.40;99.90
983;DHT22;480;48.124;11.578;2023-08-24T04:52:25;22.60;99.90
983;DHT22;480;48.124;11.578;2023-08-24T04:54:54;22.80;99.90
983;DHT22;480;48.124;11.578;2023-08-24T04:57:21;23.00;99.90
983;DHT22;480;48.124;11.578;2023-08-24T04:59:48;23.10;99.90
983;DHT22;480;48.124;11.578;2023-08-24T05:02:15;23.30;99.90
983;DHT22;480;48.124;11.578;2023-08-24T05:04:42;23.40;99.90
983;DHT22;480;48.124;11.578;2023-08-24T05:07:09;23.60;99.90
983;DHT22;480;48.124;11.578;2023-08-24T05:09:36;23.70;99.90
983;DHT22;480;48.124;11.578;2023-08-24T05:12:06;23.60;99.90
983;DHT22;480;48.124;11.578;2023-08-24T05:14:33;23.60;99.90
983;DHT22;480;48.124;11.578;2023-08-24T05:17:00;23.70;99.90
983;DHT22;480;48.124;11.578;2023-08-24T05:19:27;23.60;99.90
983;DHT22;480;48.124;11.578;2023-08-24T05:21:54;23.60;99.90
983;DHT22;480;48.124;11.578;2023-08-24T05:24:21;23.60;99.90
983;DHT22;480;48.124;11.578;2023-08-24T05:26:48;23.60;99.90
983;DHT22;480;48.124;11.578;2023-08-24T05:29:17;23.40;99.90
983;DHT22;480;48.124;11.578;2023-08-24T05:31:44;23.20;99.90
983;DHT22;480;48.124;11.578;2023-08-24T05:34:11;23.10;99.90
983;DHT22;480;48.124;11.578;2023-08-24T05:36:38;22.90;99.90
983;DHT22;480;48.124;11.578;2023-08-24T05:39:05;22.80;99.90
983;DHT22;480;48.124;11.578;2023-08-24T05:41:33;22.70;99.90
983;DHT22;480;48.124;11.578;2023-08-24T05:44:01;22.60;99.90
983;DHT22;480;48.124;11.578;2023-08-24T05:46:30;22.70;99.90
983;DHT22;480;48.124;11.578;2023-08-24T05:48:58;22.60;99.90
983;DHT22;480;48.124;11.578;2023-08-24T05:51:26;22.60;99.90
983;DHT22;480;48.124;11.578;2023-08-24T05:53:53;22.60;99.90
983;DHT22;480;48.124;11.578;2023-08-24T05:56:22;22.60;99.90
983;DHT22;480;48.124;11.578;2023-08-24T05:58:51;22.70;99.90
983;DHT22;480;48.124;11.578;2023-08-24T06:01:18;22.70;99.90
983;DHT22;480;48.124;11.578;2023-08-24T06:03:49;22.80;99.90
983;DHT22;480;48.124;11.578;2023-08-24T06:06:20;23.00;99.90
983;DHT22;480;48.124;11.578;2023-08-24T06:08:47;23.00;99.90
983;DHT22;480;48.124;11.578;2023-08-24T06:11:16;23.00;99.90
983;DHT22;480;48.124;11.578;2023-08-24T06:13:44;23.00;99.90
983;DHT22;480;48.124;11.578;2023-08-24T06:16:11;23.10;99.90
983;DHT22;480;48.124;11.578;2023-08-24T06:18:45;23.10;99.90
983;DHT22;480;48.124;11.578;2023-08-24T06:21:20;23.00;99.90
983;DHT22;480;48.124;11.578;2023-08-24T06:23:47;23.10;99.90
983;DHT22;480;48.124;11.578;2023-08-24T06:26:14;23.10;99.90
983;DHT22;480;48.124;11.578;2023-08-24T06:28:42;23.20;99.90
983;DHT22;480;48.124;11.578;2023-08-24T06:31:10;23.30;99.90
983;DHT22;480;48.124;11.578;2023-08-24T06:33:53;23.40;99.90
983;DHT22;480;48.124;11.578;2023-08-24T06:36:22;23.60;99.90
983;DHT22;480;48.124;11.578;2023-08-24T06:38:50;23.60;99.90
983;DHT22;480;48.124;11.578;2023-08-24T06:41:19;23.70;99.90
983;DHT22;480;48.124;11.578;2023-08-24T06:43:46;23.70;99.90
983;DHT22;480;48.124;11.578;2023-08-24T06:46:14;23.80;99.90
983;DHT22;480;48.124;11.578;2023-08-24T06:48:41;24.10;99.90
983;DHT22;480;48.124;11.578;2023-08-24T06:51:10;24.10;99.90
983;DHT22;480;48.124;11.578;2023-08-24T06:53:44;24.20;99.90
983;DHT22;480;48.124;11.578;2023-08-24T06:56:16;24.50;99.90
983;DHT22;480;48.124;11.578;2023-08-24T06:58:44;24.50;99.90
983;DHT22;480;48.124;11.578;2023-08-24T07:01:12;24.50;99.90
983;DHT22;480;48.124;11.578;2023-08-24T07:03:39;24.50;99.90
983;DHT22;480;48.124;11.578;2023-08-24T07:06:06;24.50;99.90
983;DHT22;480;48.124;11.578;2023-08-24T07:08:33;24.60;99.90
983;DHT22;480;48.124;11.578;2023-08-24T07:11:02;24.80;99.90
983;DHT22;480;48.124;11.578;2023-08-24T07:13:30;24.90;99.90
983;DHT22;480;48.124;11.578;2023-08-24T07:15:57;25.00;99.90
983;DHT22;480;48.124;11.578;2023-08-24T07:18:25;25.10;99.90
983;DHT22;480;48.124;11.578;2023-08-24T07:20:52;25.20;99.90
983;DHT22;480;48.124;11.578;2023-08-24T07:23:19;25.10;99.90
983;DHT22;480;48.124;11.578;2023-08-24T07:25:46;25.20;99.90
983;DHT22;480;48.124;11.578;2023-08-24T07:28:16;25.10;99.90
983;DHT22;480;48.124;11.578;2023-08-24T07:30:43;25.30;99.90
983;DHT22;480;48.124;11.578;2023-08-24T07:33:10;25.40;99.90
983;DHT22;480;48.124;11.578;2023-08-24T07:35:37;25.40;99.90
983;DHT22;480;48.124;11.578;2023-08-24T07:38:05;25.40;99.90
983;DHT22;480;48.124;11.578;2023-08-24T07:40:32;25.50;99.90
983;DHT22;480;48.124;11.578;2023-08-24T07:43:00;25.60;99.90
983;DHT22;480;48.124;11.578;2023-08-24T07:45:28;25.80;99.90
983;DHT22;480;48.124;11.578;2023-08-24T07:47:55;25.90;99.90
983;DHT22;480;48.124;11.578;2023-08-24T07:50:22;26.10;99.90
983;DHT22;480;48.124;11.578;2023-08-24T07:52:49;26.10;99.90
983;DHT22;480;48.124;11.578;2023-08-24T07:55:16;26.10;99.90
983;DHT22;480;48.124;11.578;2023-08-24T07:57:44;26.00;99.90
983;DHT22;480;48.124;11.578;2023-08-24T08:00:14;26.20;99.90
983;DHT22;480;48.124;11.578;2023-08-24T08:02:43;26.30;99.90
983;DHT22;480;48.124;11.578;2023-08-24T08:05:10;26.40;99.90
983;DHT22;480;48.124;11.578;2023-08-24T08:07:38;26.60;99.90
983;DHT22;480;48.124;11.578;2023-08-24T08:10:06;26.60;99.90
983;DHT22;480;48.124;11.578;2023-08-24T08:12:33;26.60;99.90
983;DHT22;480;48.124;11.578;2023-08-24T08:15:01;26.80;99.90
983;DHT22;480;48.124;11.578;2023-08-24T08:17:28;26.70;99.90
983;DHT22;480;48.124;11.578;2023-08-24T08:19:57;26.90;99.90
983;DHT22;480;48.124;11.578;2023-08-24T08:22:24;27.10;99.90
983;DHT22;480;48.124;11.578;2023-08-24T08:24:52;27.20;99.90
983;DHT22;480;48.124;11.578;2023-08-24T08:27:22;27.20;99.90
983;DHT22;480;48.124;11.578;2023-08-24T08:29:50;27.40;99.90
983;DHT22;480;48.124;11.578;2023-08-24T08:32:17;27.70;99.90
983;DHT22;480;48.124;11.578;2023-08-24T08:34:44;27.90;99.90
983;DHT22;480;48.124;11.578;2023-08-24T08:37:13;28.10;99.90
983;DHT22;480;48.124;11.578;2023-08-24T08:39:40;28.10;99.90
983;DHT22;480;48.124;11.578;2023-08-24T08:42:12;28.30;99.90
983;DHT22;480;48.124;11.578;2023-08-24T08:44:41;28.20;99.90
983;DHT22;480;48.124;11.578;2023-08-24T08:47:10;28.50;99.90
983;DHT22;480;48.124;11.578;2023-08-24T08:49:39;28.40;99.90
983;DHT22;480;48.124;11.578;2023-08-24T08:52:07;28.40;99.90
983;DHT22;480;48.124;11.578;2023-08-24T08:54:35;28.30;99.90
983;DHT22;480;48.124;11.578;2023-08-24T08:57:04;28.50;99.90
983;DHT22;480;48.124;11.578;2023-08-24T08:59:33;28.60;99.90
983;DHT22;480;48.124;11.578;2023-08-24T09:02:01;28.80;99.90
983;DHT22;480;48.124;11.578;2023-08-24T09:04:31;28.80;99.90
983;DHT22;480;48.124;11.578;2023-08-24T09:07:00;28.90;99.90
983;DHT22;480;48.124;11.578;2023-08-24T09:09:30;29.00;99.90
983;DHT22;480;48.124;11.578;2023-08-24T09:11:59;28.90;99.90
983;DHT22;480;48.124;11.578;2023-08-24T09:14:26;29.00;99.90
983;DHT22;480;48.124;11.578;2023-08-24T09:16:53;29.30;99.90
983;DHT22;480;48.124;11.578;2023-08-24T09:19:28;29.50;99.90
983;DHT22;480;48.124;11.578;2023-08-24T09:21:57;29.40;99.90
983;DHT22;480;48.124;11.578;2023-08-24T09:24:29;29.60;99.90
983;DHT22;480;48.124;11.578;2023-08-24T09:26:58;29.50;99.90
983;DHT22;480;48.124;11.578;2023-08-24T09:29:26;29.50;99.90
983;DHT22;480;48.124;11.578;2023-08-24T09:31:54;29.70;99.90
983;DHT22;480;48.124;11.578;2023-08-24T09:34:24;29.70;99.90
983;DHT22;480;48.124;11.578;2023-08-24T09:36:53;29.60;99.90
983;DHT22;480;48.124;11.578;2023-08-24T09:39:20;29.60;99.90
983;DHT22;480;48.124;11.578;2023-08-24T09:41:49;29.90;99.90
983;DHT22;480;48.124;11.578;2023-08-24T09:44:18;30.00;99.90
983;DHT22;480;48.124;11.578;2023-08-24T09:46:45;30.00;99.90
983;DHT22;480;48.124;11.578;2023-08-24T09:49:12;29.80;99.90
983;DHT22;480;48.124;11.578;2023-08-24T09:51:40;30.00;99.90
983;DHT22;480;48.124;11.578;2023-08-24T09:54:10;30.20;99.90
983;DHT22;480;48.124;11.578;2023-08-24T09:56:40;30.00;99.90
983;DHT22;480;48.124;11.578;2023-08-24T09:59:12;29.80;99.90
983;DHT22;480;48.124;11.578;2023-08-24T10:01:43;30.20;99.90
983;DHT22;480;48.124;11.578;2023-08-24T10:04:10;30.40;99.90
983;DHT22;480;48.124;11.578;2023-08-24T10:06:39;30.70;99.90
983;DHT22;480;48.124;11.578;2023-08-24T10:09:08;30.70;99.90
983;DHT22;480;48.124;11.578;2023-08-24T10:11:42;30.60;99.90
983;DHT22;480;48.124;11.578;2023-08-24T10:14:17;30.80;99.90
983;DHT22;480;48.124;11.578;2023-08-24T10:16:47;31.00;99.90
983;DHT22;480;48.124;11.578;2023-08-24T10:19:17;30.80;99.90
983;DHT22;480;48.124;11.578;2023-08-24T10:21:45;30.90;99.90
983;DHT22;480;48.124;11.578;2023-08-24T10:24:13;31.00;99.90
983;DHT22;480;48.124;11.578;2023-08-24T10:26:42;31.30;99.90
983;DHT22;480;48.124;11.578;2023-08-24T10:29:10;31.40;99.90
983;DHT22;480;48.124;11.578;2023-08-24T10:31:39;31.40;99.90
983;DHT22;480;48.124;11.578;2023-08-24T10:34:08;31.40;99.90
983;DHT22;480;48.124;11.578;2023-08-24T10:36:38;31.50;99.90
983;DHT22;480;48.124;11.578;2023-08-24T10:39:05;31.40;99.90
983;DHT22;480;48.124;11.578;2023-08-24T10:41:50;31.50;99.90
983;DHT22;480;48.124;11.578;2023-08-24T10:44:21;31.40;99.90
983;DHT22;480;48.124;11.578;2023-08-24T10:47:11;31.40;99.90
983;DHT22;480;48.124;11.578;2023-08-24T10:49:40;31.60;99.90
983;DHT22;480;48.124;11.578;2023-08-24T10:52:17;31.80;99.90
983;DHT22;480;48.124;11.578;2023-08-24T10:54:45;31.90;99.90
983;DHT22;480;48.124;11.578;2023-08-24T10:57:22;32.10;99.90
983;DHT22;480;48.124;11.578;2023-08-24T10:59:59;32.10;99.90
983;DHT22;480;48.124;11.578;2023-08-24T11:02:26;32.20;99.90
983;DHT22;480;48.124;11.578;2023-08-24T11:05:15;32.30;98.90
983;DHT22;480;48.124;11.578;2023-08-24T11:07:50;32.30;99.80
983;DHT22;480;48.124;11.578;2023-08-24T11:10:18;32.50;99.90
983;DHT22;480;48.124;11.578;2023-08-24T11:13:04;32.60;99.90
983;DHT22;480;48.124;11.578;2023-08-24T11:15:31;32.90;97.80
983;DHT22;480;48.124;11.578;2023-08-24T11:18:12;32.60;99.90
983;DHT22;480;48.124;11.578;2023-08-24T11:20:42;32.60;99.60
983;DHT22;480;48.124;11.578;2023-08-24T11:23:10;32.90;97.90
983;DHT22;480;48.124;11.578;2023-08-24T11:25:37;32.70;98.00
983;DHT22;480;48.124;11.578;2023-08-24T11:28:04;32.70;97.40
983;DHT22;480;48.124;11.578;2023-08-24T11:30:32;32.90;98.70
983;DHT22;480;48.124;11.578;2023-08-24T11:32:59;32.90;97.10
983;DHT22;480;48.124;11.578;2023-08-24T11:35:27;32.70;98.70
983;DHT22;480;48.124;11.578;2023-08-24T11:37:55;32.90;98.80
983;DHT22;480;48.124;11.578;2023-08-24T11:40:23;33.20;97.70
983;DHT22;480;48.124;11.578;2023-08-24T11:42:54;33.30;97.20
983;DHT22;480;48.124;11.578;2023-08-24T11:45:22;32.90;93.10
983;DHT22;480;48.124;11.578;2023-08-24T11:47:49;33.30;94.90
983;DHT22;480;48.124;11.578;2023-08-24T11:50:17;33.40;94.00
983;DHT22;480;48.124;11.578;2023-08-24T11:52:44;33.60;94.80
983;DHT22;480;48.124;11.578;2023-08-24T11:55:13;33.30;95.60
983;DHT22;480;48.124;11.578;2023-08-24T11:57:41;33.10;93.00
983;DHT22;480;48.124;11.578;2023-08-24T12:00:09;33.20;94.20
983;DHT22;480;48.124;11.578;2023-08-24T12:02:40;33.20;94.70
983;DHT22;480;48.124;11.578;2023-08-24T12:05:07;33.10;94.20
983;DHT22;480;48.124;11.578;2023-08-24T12:07:34;33.10;95.00
983;DHT22;480;48.124;11.578;2023-08-24T12:10:02;33.40;92.70
983;DHT22;480;48.124;11.578;2023-08-24T12:12:30;33.50;93.80
983;DHT22;480;48.124;11.578;2023-08-24T12:14:57;33.30;93.70
983;DHT22;480;48.124;11.578;2023-08-24T12:17:25;33.50;93.00
983;DHT22;480;48.124;11.578;2023-08-24T12:20:01;33.80;92.30
983;DHT22;480;48.124;11.578;2023-08-24T12:22:32;33.90;92.20
983;DHT22;480;48.124;11.578;2023-08-24T12:24:59;34.00;92.50
983;DHT22;480;48.124;11.578;2023-08-24T12:27:27;34.20;92.80
983;DHT22;480;48.124;11.578;2023-08-24T12:30:00;34.10;92.80
983;DHT22;480;48.124;11.578;2023-08-24T12:32:41;34.30;93.10
983;DHT22;480;48.124;11.578;2023-08-24T12:35:09;34.20;93.00
983;DHT22;480;48.124;11.578;2023-08-24T12:37:36;34.70;92.40
983;DHT22;480;48.124;11.578;2023-08-24T12:40:03;34.50;92.60
983;DHT22;480;48.124;11.578;2023-08-24T12:42:31;34.90;91.90
983;DHT22;480;48.124;11.578;2023-08-24T12:44:59;34.60;92.80
983;DHT22;480;48.124;11.578;2023-08-24T12:47:26;34.50;92.40
983;DHT22;480;48.124;11.578;2023-08-24T12:49:53;34.60;91.20
983;DHT22;480;48.124;11.578;2023-08-24T12:52:22;34.60;90.50
983;DHT22;480;48.124;11.578;2023-08-24T12:54:50;34.50;91.10
983;DHT22;480;48.124;11.578;2023-08-24T12:57:17;34.00;91.00
983;DHT22;480;48.124;11.578;2023-08-24T12:59:44;34.10;92.10
983;DHT22;480;48.124;11.578;2023-08-24T13:02:13;34.60;91.80
983;DHT22;480;48.124;11.578;2023-08-24T13:04:40;35.00;90.90
983;DHT22;480;48.124;11.578;2023-08-24T13:07:07;35.00;90.30
983;DHT22;480;48.124;11.578;2023-08-24T13:09:34;34.60;92.00
983;DHT22;480;48.124;11.578;2023-08-24T13:12:02;34.40;92.60
983;DHT22;480;48.124;11.578;2023-08-24T13:14:28;34.60;92.90
983;DHT22;480;48.124;11.578;2023-08-24T13:16:56;34.70;92.30
983;DHT22;480;48.124;11.578;2023-08-24T13:19:24;34.50;92.10
983;DHT22;480;48.124;11.578;2023-08-24T13:21:51;34.30;92.60
983;DHT22;480;48.124;11.578;2023-08-24T13:24:18;33.90;92.80
983;DHT22;480;48.124;11.578;2023-08-24T13:26:45;33.80;93.00
983;DHT22;480;48.124;11.578;2023-08-24T13:29:12;34.20;93.20
983;DHT22;480;48.124;11.578;2023-08-24T13:31:39;34.70;93.00
983;DHT22;480;48.124;11.578;2023-08-24T13:34:06;34.70;92.10
983;DHT22;480;48.124;11.578;2023-08-24T13:36:35;34.90;91.70
983;DHT22;480;48.124;11.578;2023-08-24T13:39:02;34.20;92.40
983;DHT22;480;48.124;11.578;2023-08-24T13:41:30;34.40;92.40
983;DHT22;480;48.124;11.578;2023-08-24T13:43:57;34.30;92.30
983;DHT22;480;48.124;11.578;2023-08-24T13:46:24;34.30;92.70
983;DHT22;480;48.124;11.578;2023-08-24T13:48:51;34.10;92.30
983;DHT22;480;48.124;11.578;2023-08-24T13:51:18;34.20;92.90
983;DHT22;480;48.124;11.578;2023-08-24T13:53:47;34.50;92.20
983;DHT22;480;48.124;11.578;2023-08-24T13:56:14;34.60;92.40
983;DHT22;480;48.124;11.578;2023-08-24T13:58:41;34.90;92.70
983;DHT22;480;48.124;11.578;2023-08-24T14:01:08;34.70;92.60
983;DHT22;480;48.124;11.578;2023-08-24T14:03:36;34.40;93.10
983;DHT22;480;48.124;11.578;2023-08-24T14:06:03;34.60;93.40
983;DHT22;480;48.124;11.578;2023-08-24T14:08:30;34.10;93.40
983;DHT22;480;48.124;11.578;2023-08-24T14:10:59;34.10;93.50
983;DHT22;480;48.124;11.578;2023-08-24T14:13:26;34.20;93.30
983;DHT22;480;48.124;11.578;2023-08-24T14:15:53;34.40;93.30
983;DHT22;480;48.124;11.578;2023-08-24T14:18:21;34.80;93.20
983;DHT22;480;48.124;11.578;2023-08-24T14:20:48;34.90;92.80
983;DHT22;480;48.124;11.578;2023-08-24T14:23:15;35.30;93.00
983;DHT22;480;48.124;11.578;2023-08-24T14:25:42;34.80;92.50
983;DHT22;480;48.124;11.578;2023-08-24T14:28:11;34.20;92.30
983;DHT22;480;48.124;11.578;2023-08-24T14:30:38;34.20;93.30
983;DHT22;480;48.124;11.578;2023-08-24T14:33:05;34.10;93.30
983;DHT22;480;48.124;11.578;2023-08-24T14:35:32;34.00;93.70
983;DHT22;480;48.124;11.578;2023-08-24T14:37:59;34.00;93.40
983;DHT22;480;48.124;11.578;2023-08-24T14:40:26;33.90;93.30
983;DHT22;480;48.124;11.578;2023-08-24T14:42:53;33.90;93.80
983;DHT22;480;48.124;11.578;2023-08-24T14:45:22;34.10;94.10
983;DHT22;480;48.124;11.578;2023-08-24T14:47:49;33.90;94.60
983;DHT22;480;48.124;11.578;2023-08-24T14:50:16;33.90;94.40
983;DHT22;480;48.124;11.578;2023-08-24T14:52:43;34.00;94.90
983;DHT22;480;48.124;11.578;2023-08-24T14:55:10;34.00;95.10
983;DHT22;480;48.124;11.578;2023-08-24T14:57:38;34.10;94.90
983;DHT22;480;48.124;11.578;2023-08-24T15:00:06;34.00;94.70
983;DHT22;480;48.124;11.578;2023-08-24T15:02:36;33.80;95.30
983;DHT22;480;48.124;11.578;2023-08-24T15:05:04;33.90;94.90
983;DHT22;480;48.124;11.578;2023-08-24T15:07:31;33.80;95.20
983;DHT22;480;48.124;11.578;2023-08-24T15:09:58;33.90;96.00
983;DHT22;480;48.124;11.578;2023-08-24T15:12:25;34.00;96.00
983;DHT22;480;48.124;11.578;2023-08-24T15:14:59;33.90;95.20
983;DHT22;480;48.124;11.578;2023-08-24T15:17:26;33.70;95.00
983;DHT22;480;48.124;11.578;2023-08-24T15:19:55;33.70;94.90
983;DHT22;480;48.124;11.578;2023-08-24T15:22:23;33.70;95.40
983;DHT22;480;48.124;11.578;2023-08-24T15:24:51;33.90;95.60
983;DHT22;480;48.124;11.578;2023-08-24T15:27:18;34.10;95.50
983;DHT22;480;48.124;11.578;2023-08-24T15:29:45;34.40;95.40
983;DHT22;480;48.124;11.578;2023-08-24T15:32:12;34.30;94.80
983;DHT22;480;48.124;11.578;2023-08-24T15:34:39;34.20;95.40
983;DHT22;480;48.124;11.578;2023-08-24T15:37:07;34.00;95.20
983;DHT22;480;48.124;11.578;2023-08-24T15:39:36;34.10;95.30
983;DHT22;480;48.124;11.578;2023-08-24T15:42:04;34.00;95.40
983;DHT22;480;48.124;11.578;2023-08-24T15:44:31;33.80;95.40
983;DHT22;480;48.124;11.578;2023-08-24T15:46:58;33.70;95.80
983;DHT22;480;48.124;11.578;2023-08-24T15:49:25;33.60;95.70
983;DHT22;480;48.124;11.578;2023-08-24T15:51:53;33.60;96.20
983;DHT22;480;48.124;11.578;2023-08-24T15:54:21;33.30;96.30
983;DHT22;480;48.124;11.578;2023-08-24T15:56:50;33.20;96.60
983;DHT22;480;48.124;11.578;2023-08-24T15:59:18;33.20;96.90
983;DHT22;480;48.124;11.578;2023-08-24T16:01:45;33.20;97.40
983;DHT22;480;48.124;11.578;2023-08-24T16:04:13;33.10;97.50
983;DHT22;480;48.124;11.578;2023-08-24T16:06:41;33.10;97.80
983;DHT22;480;48.124;11.578;2023-08-24T16:09:08;32.90;98.60
983;DHT22;480;48.124;11.578;2023-08-24T16:11:37;32.90;98.70
983;DHT22;480;48.124;11.578;2023-08-24T16:14:04;32.90;98.80
983;DHT22;480;48.124;11.578;2023-08-24T16:16:31;32.90;98.80
983;DHT22;480;48.124;11.578;2023-08-24T16:18:59;33.00;99.20
983;DHT22;480;48.124;11.578;2023-08-24T16:21:27;32.80;98.90
983;DHT22;480;48.124;11.578;2023-08-24T16:23:55;32.80;99.30